sensor_id;sensor_type;location;lat;lon;timestamp;P1;durP1;ratioP1;P2;durP2;ratioP2
57433;SDS011;43277;52.672;6.984;2022-09-09T00:03:48;16.63;;;9.10;;
57433;SDS011;43277;52.672;6.984;2022-09-09T00:06:19;18.88;;;9.15;;
57433;SDS011;43277;52.672;6.984;2022-09-09T00:09:08;16.08;;;8.10;;
57433;SDS011;43277;52.672;6.984;2022-09-09T00:14:51;12.95;;;8.00;;
57433;SDS011;43277;52.672;6.984;2022-09-09T00:17:39;12.98;;;7.53;;
57433;SDS011;43277;52.672;6.984;2022-09-09T00:22:59;15.10;;;8.05;;
57433;SDS011;43277;52.672;6.984;2022-09-09T00:25:37;26.80;;;14.77;;
57433;SDS011;43277;52.672;6.984;2022-09-09T00:28:17;14.82;;;7.43;;
57433;SDS011;43277;52.672;6.984;2022-09-09T00:30:45;16.77;;;8.73;;
57433;SDS011;43277;52.672;6.984;2022-09-09T00:33:13;13.68;;;7.95;;
57433;SDS011;43277;52.672;6.984;2022-09-09T00:35:49;17.73;;;8.80;;
57433;SDS011;43277;52.672;6.984;2022-09-09T00:38:34;15.25;;;10.13;;
57433;SDS011;43277;52.672;6.984;2022-09-09T00:41:20;14.93;;;8.32;;
57433;SDS011;43277;52.672;6.984;2022-09-09T00:44:06;11.18;;;6.50;;
57433;SDS011;43277;52.672;6.984;2022-09-09T00:57:34;14.15;;;8.05;;
57433;SDS011;43277;52.672;6.984;2022-09-09T01:00:20;13.90;;;6.40;;
57433;SDS011;43277;52.672;6.984;2022-09-09T01:11:21;12.05;;;7.78;;
57433;SDS011;43277;52.672;6.984;2022-09-09T01:14:01;14.95;;;7.82;;
57433;SDS011;43277;52.672;6.984;2022-09-09T01:16:39;12.52;;;7.72;;
57433;SDS011;43277;52.672;6.984;2022-09-09T01:19:07;16.85;;;8.13;;
57433;SDS011;43277;52.672;6.984;2022-09-09T01:24:43;15.40;;;7.93;;
57433;SDS011;43277;52.672;6.984;2022-09-09T01:27:21;18.80;;;9.75;;
57433;SDS011;43277;52.672;6.984;2022-09-09T01:29:48;16.90;;;7.65;;
57433;SDS011;43277;52.672;6.984;2022-09-09T01:35:08;20.08;;;9.80;;
57433;SDS011;43277;52.672;6.984;2022-09-09T01:37:57;19.95;;;8.43;;
57433;SDS011;43277;52.672;6.984;2022-09-09T01:40:25;17.52;;;7.97;;
57433;SDS011;43277;52.672;6.984;2022-09-09T01:42:51;17.98;;;10.48;;
57433;SDS011;43277;52.672;6.984;2022-09-09T01:45:18;22.00;;;11.20;;
57433;SDS011;43277;52.672;6.984;2022-09-09T01:47:44;20.63;;;12.00;;
57433;SDS011;43277;52.672;6.984;2022-09-09T01:50:11;16.85;;;8.55;;
57433;SDS011;43277;52.672;6.984;2022-09-09T01:52:39;13.60;;;7.82;;
57433;SDS011;43277;52.672;6.984;2022-09-09T01:55:06;15.98;;;9.02;;
57433;SDS011;43277;52.672;6.984;2022-09-09T02:00:11;16.13;;;10.82;;
57433;SDS011;43277;52.672;6.984;2022-09-09T02:02:43;12.38;;;6.93;;
57433;SDS011;43277;52.672;6.984;2022-09-09T02:13:18;15.15;;;7.03;;
57433;SDS011;43277;52.672;6.984;2022-09-09T02:15:52;13.60;;;7.07;;
57433;SDS011;43277;52.672;6.984;2022-09-09T02:18:27;11.27;;;6.68;;
57433;SDS011;43277;52.672;6.984;2022-09-09T02:20:57;14.77;;;6.50;;
57433;SDS011;43277;52.672;6.984;2022-09-09T02:23:24;12.82;;;7.00;;
57433;SDS011;43277;52.672;6.984;2022-09-09T02:25:50;13.10;;;6.72;;
57433;SDS011;43277;52.672;6.984;2022-09-09T02:28:18;10.10;;;6.35;;
57433;SDS011;43277;52.672;6.984;2022-09-09T02:30:46;14.70;;;8.05;;
57433;SDS011;43277;52.672;6.984;2022-09-09T02:33:16;14.70;;;7.70;;
57433;SDS011;43277;52.672;6.984;2022-09-09T02:35:42;12.30;;;7.35;;
57433;SDS011;43277;52.672;6.984;2022-09-09T02:38:10;11.75;;;6.55;;
57433;SDS011;43277;52.672;6.984;2022-09-09T02:40:38;12.40;;;6.63;;
57433;SDS011;43277;52.672;6.984;2022-09-09T02:43:04;13.15;;;7.90;;
57433;SDS011;43277;52.672;6.984;2022-09-09T02:48:24;15.05;;;8.85;;
57433;SDS011;43277;52.672;6.984;2022-09-09T02:53:32;12.20;;;7.28;;
57433;SDS011;43277;52.672;6.984;2022-09-09T02:56:09;14.43;;;7.35;;
57433;SDS011;43277;52.672;6.984;2022-09-09T02:58:40;12.65;;;7.93;;
57433;SDS011;43277;52.672;6.984;2022-09-09T03:01:06;11.52;;;7.80;;
57433;SDS011;43277;52.672;6.984;2022-09-09T03:03:32;20.70;;;11.82;;
57433;SDS011;43277;52.672;6.984;2022-09-09T03:05:58;15.10;;;8.07;;
57433;SDS011;43277;52.672;6.984;2022-09-09T03:08:24;13.98;;;9.68;;
57433;SDS011;43277;52.672;6.984;2022-09-09T03:10:49;13.70;;;8.73;;
57433;SDS011;43277;52.672;6.984;2022-09-09T03:13:15;25.17;;;15.95;;
57433;SDS011;43277;52.672;6.984;2022-09-09T03:15:41;18.65;;;10.98;;
57433;SDS011;43277;52.672;6.984;2022-09-09T03:18:07;16.88;;;11.60;;
57433;SDS011;43277;52.672;6.984;2022-09-09T03:20:32;12.20;;;8.75;;
57433;SDS011;43277;52.672;6.984;2022-09-09T03:22:58;18.52;;;12.75;;
57433;SDS011;43277;52.672;6.984;2022-09-09T03:25:24;22.70;;;13.85;;
57433;SDS011;43277;52.672;6.984;2022-09-09T03:27:50;22.92;;;12.65;;
57433;SDS011;43277;52.672;6.984;2022-09-09T03:30:19;20.13;;;13.55;;
57433;SDS011;43277;52.672;6.984;2022-09-09T03:32:48;27.60;;;16.75;;
57433;SDS011;43277;52.672;6.984;2022-09-09T03:35:13;25.20;;;16.00;;
57433;SDS011;43277;52.672;6.984;2022-09-09T03:37:40;28.05;;;16.55;;
57433;SDS011;43277;52.672;6.984;2022-09-09T03:40:06;20.85;;;15.10;;
57433;SDS011;43277;52.672;6.984;2022-09-09T03:42:34;21.27;;;13.68;;
57433;SDS011;43277;52.672;6.984;2022-09-09T03:45:02;28.98;;;17.88;;
57433;SDS011;43277;52.672;6.984;2022-09-09T03:47:28;22.33;;;14.20;;
57433;SDS011;43277;52.672;6.984;2022-09-09T03:49:54;20.27;;;14.00;;
57433;SDS011;43277;52.672;6.984;2022-09-09T03:52:20;17.73;;;14.05;;
57433;SDS011;43277;52.672;6.984;2022-09-09T03:54:49;23.30;;;14.93;;
57433;SDS011;43277;52.672;6.984;2022-09-09T03:57:16;21.73;;;14.77;;
57433;SDS011;43277;52.672;6.984;2022-09-09T03:59:42;22.88;;;16.17;;
57433;SDS011;43277;52.672;6.984;2022-09-09T04:02:08;17.50;;;13.93;;
57433;SDS011;43277;52.672;6.984;2022-09-09T04:04:34;21.77;;;16.17;;
57433;SDS011;43277;52.672;6.984;2022-09-09T04:06:59;17.27;;;13.60;;
57433;SDS011;43277;52.672;6.984;2022-09-09T04:09:25;27.17;;;17.10;;
57433;SDS011;43277;52.672;6.984;2022-09-09T04:11:51;26.27;;;15.98;;
57433;SDS011;43277;52.672;6.984;2022-09-09T04:14:18;24.08;;;16.75;;
57433;SDS011;43277;52.672;6.984;2022-09-09T04:16:44;19.63;;;14.63;;
57433;SDS011;43277;52.672;6.984;2022-09-09T04:19:11;25.10;;;17.33;;
57433;SDS011;43277;52.672;6.984;2022-09-09T04:21:38;20.25;;;13.48;;
57433;SDS011;43277;52.672;6.984;2022-09-09T04:24:06;22.05;;;15.43;;
57433;SDS011;43277;52.672;6.984;2022-09-09T04:26:32;21.55;;;15.80;;
57433;SDS011;43277;52.672;6.984;2022-09-09T04:28:59;15.13;;;12.30;;
57433;SDS011;43277;52.672;6.984;2022-09-09T04:31:25;17.63;;;14.15;;
57433;SDS011;43277;52.672;6.984;2022-09-09T04:33:50;16.65;;;13.02;;
57433;SDS011;43277;52.672;6.984;2022-09-09T04:36:17;16.67;;;11.63;;
57433;SDS011;43277;52.672;6.984;2022-09-09T04:38:44;18.67;;;11.82;;
57433;SDS011;43277;52.672;6.984;2022-09-09T04:41:10;17.23;;;13.20;;
57433;SDS011;43277;52.672;6.984;2022-09-09T04:43:36;19.65;;;13.50;;
57433;SDS011;43277;52.672;6.984;2022-09-09T04:46:05;19.45;;;12.80;;
57433;SDS011;43277;52.672;6.984;2022-09-09T04:48:31;22.98;;;13.70;;
57433;SDS011;43277;52.672;6.984;2022-09-09T04:51:04;21.45;;;15.10;;
57433;SDS011;43277;52.672;6.984;2022-09-09T04:53:31;24.92;;;17.08;;
57433;SDS011;43277;52.672;6.984;2022-09-09T04:56:12;19.63;;;12.68;;
57433;SDS011;43277;52.672;6.984;2022-09-09T04:58:40;16.23;;;11.82;;
57433;SDS011;43277;52.672;6.984;2022-09-09T05:03:45;18.20;;;12.43;;
57433;SDS011;43277;52.672;6.984;2022-09-09T05:06:12;17.08;;;12.60;;
57433;SDS011;43277;52.672;6.984;2022-09-09T05:08:40;17.88;;;12.10;;
57433;SDS011;43277;52.672;6.984;2022-09-09T05:11:22;18.88;;;13.32;;
57433;SDS011;43277;52.672;6.984;2022-09-09T05:13:52;18.48;;;13.48;;
57433;SDS011;43277;52.672;6.984;2022-09-09T05:16:19;18.92;;;13.73;;
57433;SDS011;43277;52.672;6.984;2022-09-09T05:18:45;22.85;;;14.63;;
57433;SDS011;43277;52.672;6.984;2022-09-09T05:21:12;20.65;;;13.88;;
57433;SDS011;43277;52.672;6.984;2022-09-09T05:23:40;20.98;;;14.57;;
57433;SDS011;43277;52.672;6.984;2022-09-09T05:26:06;13.70;;;10.50;;
57433;SDS011;43277;52.672;6.984;2022-09-09T05:28:34;13.90;;;10.73;;
57433;SDS011;43277;52.672;6.984;2022-09-09T05:31:01;16.55;;;12.23;;
57433;SDS011;43277;52.672;6.984;2022-09-09T05:33:33;22.80;;;16.23;;
57433;SDS011;43277;52.672;6.984;2022-09-09T05:36:00;19.23;;;13.02;;
57433;SDS011;43277;52.672;6.984;2022-09-09T05:38:28;21.77;;;15.52;;
57433;SDS011;43277;52.672;6.984;2022-09-09T05:40:55;19.35;;;14.77;;
57433;SDS011;43277;52.672;6.984;2022-09-09T05:43:23;17.45;;;13.07;;
57433;SDS011;43277;52.672;6.984;2022-09-09T05:48:30;18.95;;;14.70;;
57433;SDS011;43277;52.672;6.984;2022-09-09T05:50:57;22.45;;;15.48;;
57433;SDS011;43277;52.672;6.984;2022-09-09T05:53:23;15.68;;;12.20;;
57433;SDS011;43277;52.672;6.984;2022-09-09T05:55:50;20.20;;;15.20;;
57433;SDS011;43277;52.672;6.984;2022-09-09T05:58:15;22.63;;;16.92;;
57433;SDS011;43277;52.672;6.984;2022-09-09T06:00:42;13.95;;;11.20;;
57433;SDS011;43277;52.672;6.984;2022-09-09T06:03:12;19.00;;;13.15;;
57433;SDS011;43277;52.672;6.984;2022-09-09T06:05:37;21.98;;;16.35;;
57433;SDS011;43277;52.672;6.984;2022-09-09T06:08:03;17.80;;;13.25;;
57433;SDS011;43277;52.672;6.984;2022-09-09T06:10:29;18.52;;;13.07;;
57433;SDS011;43277;52.672;6.984;2022-09-09T06:12:54;12.43;;;9.82;;
57433;SDS011;43277;52.672;6.984;2022-09-09T06:15:20;13.70;;;10.90;;
57433;SDS011;43277;52.672;6.984;2022-09-09T06:17:45;17.60;;;12.88;;
57433;SDS011;43277;52.672;6.984;2022-09-09T06:20:12;18.75;;;13.00;;
57433;SDS011;43277;52.672;6.984;2022-09-09T06:22:41;15.38;;;11.50;;
57433;SDS011;43277;52.672;6.984;2022-09-09T06:25:08;15.82;;;12.55;;
57433;SDS011;43277;52.672;6.984;2022-09-09T06:27:34;19.30;;;12.13;;
57433;SDS011;43277;52.672;6.984;2022-09-09T06:30:00;14.52;;;11.63;;
57433;SDS011;43277;52.672;6.984;2022-09-09T06:32:25;17.42;;;12.90;;
57433;SDS011;43277;52.672;6.984;2022-09-09T06:34:51;15.55;;;13.02;;
57433;SDS011;43277;52.672;6.984;2022-09-09T06:37:17;16.15;;;12.98;;
57433;SDS011;43277;52.672;6.984;2022-09-09T06:39:43;18.27;;;12.88;;
57433;SDS011;43277;52.672;6.984;2022-09-09T06:42:09;17.45;;;13.57;;
57433;SDS011;43277;52.672;6.984;2022-09-09T06:44:34;16.52;;;12.27;;
57433;SDS011;43277;52.672;6.984;2022-09-09T06:47:01;16.40;;;12.15;;
57433;SDS011;43277;52.672;6.984;2022-09-09T06:49:27;17.05;;;12.82;;
57433;SDS011;43277;52.672;6.984;2022-09-09T06:51:52;16.63;;;11.95;;
57433;SDS011;43277;52.672;6.984;2022-09-09T06:54:19;16.02;;;10.93;;
57433;SDS011;43277;52.672;6.984;2022-09-09T06:56:45;16.38;;;11.77;;
57433;SDS011;43277;52.672;6.984;2022-09-09T06:59:11;19.98;;;13.18;;
57433;SDS011;43277;52.672;6.984;2022-09-09T07:01:41;16.33;;;11.13;;
57433;SDS011;43277;52.672;6.984;2022-09-09T07:04:11;17.52;;;11.52;;
57433;SDS011;43277;52.672;6.984;2022-09-09T07:06:39;12.18;;;8.35;;
57433;SDS011;43277;52.672;6.984;2022-09-09T07:09:08;16.50;;;9.07;;
57433;SDS011;43277;52.672;6.984;2022-09-09T07:11:40;12.75;;;9.55;;
57433;SDS011;43277;52.672;6.984;2022-09-09T07:14:10;13.35;;;8.93;;
57433;SDS011;43277;52.672;6.984;2022-09-09T07:16:39;14.15;;;9.13;;
57433;SDS011;43277;52.672;6.984;2022-09-09T07:19:08;13.43;;;8.35;;
57433;SDS011;43277;52.672;6.984;2022-09-09T07:21:34;14.07;;;8.70;;
57433;SDS011;43277;52.672;6.984;2022-09-09T07:23:59;15.00;;;8.18;;
57433;SDS011;43277;52.672;6.984;2022-09-09T07:26:27;10.85;;;7.25;;
57433;SDS011;43277;52.672;6.984;2022-09-09T07:28:55;12.98;;;6.70;;
57433;SDS011;43277;52.672;6.984;2022-09-09T07:31:29;11.77;;;7.70;;
57433;SDS011;43277;52.672;6.984;2022-09-09T07:33:56;12.45;;;7.15;;
57433;SDS011;43277;52.672;6.984;2022-09-09T07:36:24;14.63;;;7.38;;
57433;SDS011;43277;52.672;6.984;2022-09-09T07:38:55;12.27;;;7.10;;
57433;SDS011;43277;52.672;6.984;2022-09-09T07:43:50;13.02;;;7.20;;
57433;SDS011;43277;52.672;6.984;2022-09-09T07:46:19;15.93;;;7.55;;
57433;SDS011;43277;52.672;6.984;2022-09-09T07:48:47;9.68;;;5.32;;
57433;SDS011;43277;52.672;6.984;2022-09-09T07:51:17;13.40;;;7.20;;
57433;SDS011;43277;52.672;6.984;2022-09-09T07:53:48;13.65;;;6.35;;
57433;SDS011;43277;52.672;6.984;2022-09-09T07:56:17;11.57;;;6.47;;
57433;SDS011;43277;52.672;6.984;2022-09-09T07:58:47;11.07;;;6.03;;
57433;SDS011;43277;52.672;6.984;2022-09-09T08:01:15;12.65;;;5.72;;
57433;SDS011;43277;52.672;6.984;2022-09-09T08:03:56;13.75;;;5.22;;
57433;SDS011;43277;52.672;6.984;2022-09-09T08:06:27;12.80;;;5.80;;
57433;SDS011;43277;52.672;6.984;2022-09-09T08:08:58;11.15;;;5.15;;
57433;SDS011;43277;52.672;6.984;2022-09-09T08:11:24;13.43;;;5.90;;
57433;SDS011;43277;52.672;6.984;2022-09-09T08:13:52;13.43;;;5.05;;
57433;SDS011;43277;52.672;6.984;2022-09-09T08:16:19;14.73;;;5.47;;
57433;SDS011;43277;52.672;6.984;2022-09-09T08:18:47;13.88;;;5.63;;
57433;SDS011;43277;52.672;6.984;2022-09-09T08:21:15;9.50;;;4.75;;
57433;SDS011;43277;52.672;6.984;2022-09-09T08:23:46;10.52;;;4.72;;
57433;SDS011;43277;52.672;6.984;2022-09-09T08:26:31;12.60;;;5.13;;
57433;SDS011;43277;52.672;6.984;2022-09-09T08:29:00;12.10;;;4.97;;
57433;SDS011;43277;52.672;6.984;2022-09-09T08:33:53;13.32;;;5.18;;
57433;SDS011;43277;52.672;6.984;2022-09-09T08:36:20;10.38;;;4.38;;
57433;SDS011;43277;52.672;6.984;2022-09-09T08:38:54;13.10;;;4.63;;
57433;SDS011;43277;52.672;6.984;2022-09-09T09:09:03;11.82;;;3.33;;
57433;SDS011;43277;52.672;6.984;2022-09-09T09:11:48;15.30;;;3.50;;
57433;SDS011;43277;52.672;6.984;2022-09-09T09:14:21;13.43;;;3.03;;
57433;SDS011;43277;52.672;6.984;2022-09-09T09:19:14;12.38;;;3.17;;
57433;SDS011;43277;52.672;6.984;2022-09-09T09:21:47;13.65;;;3.35;;
57433;SDS011;43277;52.672;6.984;2022-09-09T09:27:13;13.98;;;3.03;;
57433;SDS011;43277;52.672;6.984;2022-09-09T09:30:00;13.85;;;2.83;;
57433;SDS011;43277;52.672;6.984;2022-09-09T09:32:37;11.77;;;3.03;;
57433;SDS011;43277;52.672;6.984;2022-09-09T09:35:06;12.85;;;2.95;;
57433;SDS011;43277;52.672;6.984;2022-09-09T09:37:37;15.60;;;3.25;;
57433;SDS011;43277;52.672;6.984;2022-09-09T09:40:08;14.23;;;3.38;;
57433;SDS011;43277;52.672;6.984;2022-09-09T09:42:46;10.75;;;2.88;;
57433;SDS011;43277;52.672;6.984;2022-09-09T09:45:28;11.43;;;2.92;;
57433;SDS011;43277;52.672;6.984;2022-09-09T09:48:03;12.52;;;2.97;;
57433;SDS011;43277;52.672;6.984;2022-09-09T09:50:30;14.77;;;2.95;;
57433;SDS011;43277;52.672;6.984;2022-09-09T09:53:02;10.30;;;2.70;;
57433;SDS011;43277;52.672;6.984;2022-09-09T09:55:30;11.70;;;2.85;;
57433;SDS011;43277;52.672;6.984;2022-09-09T09:58:05;11.88;;;2.75;;
57433;SDS011;43277;52.672;6.984;2022-09-09T10:00:32;11.70;;;2.72;;
57433;SDS011;43277;52.672;6.984;2022-09-09T10:03:00;8.32;;;2.20;;
57433;SDS011;43277;52.672;6.984;2022-09-09T10:05:27;11.18;;;2.53;;
57433;SDS011;43277;52.672;6.984;2022-09-09T10:13:28;12.95;;;2.38;;
57433;SDS011;43277;52.672;6.984;2022-09-09T10:16:33;11.07;;;2.05;;
57433;SDS011;43277;52.672;6.984;2022-09-09T10:19:32;11.98;;;2.47;;
57433;SDS011;43277;52.672;6.984;2022-09-09T10:24:43;9.13;;;2.58;;
57433;SDS011;43277;52.672;6.984;2022-09-09T10:27:58;11.30;;;2.67;;
57433;SDS011;43277;52.672;6.984;2022-09-09T10:34:02;11.25;;;2.40;;
57433;SDS011;43277;52.672;6.984;2022-09-09T10:36:29;10.85;;;2.30;;
57433;SDS011;43277;52.672;6.984;2022-09-09T10:38:57;7.20;;;1.90;;
57433;SDS011;43277;52.672;6.984;2022-09-09T10:44:21;12.77;;;2.35;;
57433;SDS011;43277;52.672;6.984;2022-09-09T10:55:18;11.15;;;2.40;;
57433;SDS011;43277;52.672;6.984;2022-09-09T10:57:46;11.00;;;2.30;;
57433;SDS011;43277;52.672;6.984;2022-09-09T11:00:22;10.40;;;2.38;;
57433;SDS011;43277;52.672;6.984;2022-09-09T11:03:06;8.15;;;2.00;;
57433;SDS011;43277;52.672;6.984;2022-09-09T11:05:44;9.77;;;2.30;;
57433;SDS011;43277;52.672;6.984;2022-09-09T11:08:18;10.63;;;2.15;;
57433;SDS011;43277;52.672;6.984;2022-09-09T11:10:58;9.85;;;2.60;;
57433;SDS011;43277;52.672;6.984;2022-09-09T11:13:37;7.75;;;1.88;;
57433;SDS011;43277;52.672;6.984;2022-09-09T11:16:29;9.68;;;2.42;;
57433;SDS011;43277;52.672;6.984;2022-09-09T11:21:48;9.77;;;1.90;;
57433;SDS011;43277;52.672;6.984;2022-09-09T11:43:52;8.57;;;1.92;;
57433;SDS011;43277;52.672;6.984;2022-09-09T11:45:54;10.05;;;1.83;;
57433;SDS011;43277;52.672;6.984;2022-09-09T11:48:29;8.63;;;1.48;;
57433;SDS011;43277;52.672;6.984;2022-09-09T11:51:07;8.82;;;1.98;;
57433;SDS011;43277;52.672;6.984;2022-09-09T11:53:36;10.32;;;1.80;;
57433;SDS011;43277;52.672;6.984;2022-09-09T11:56:24;10.32;;;2.00;;
57433;SDS011;43277;52.672;6.984;2022-09-09T11:58:58;6.80;;;1.70;;
57433;SDS011;43277;52.672;6.984;2022-09-09T12:01:30;8.23;;;1.83;;
57433;SDS011;43277;52.672;6.984;2022-09-09T12:06:58;9.20;;;1.90;;
57433;SDS011;43277;52.672;6.984;2022-09-09T12:12:35;7.15;;;1.40;;
57433;SDS011;43277;52.672;6.984;2022-09-09T12:17:44;8.55;;;1.48;;
57433;SDS011;43277;52.672;6.984;2022-09-09T12:34:02;31.88;;;2.72;;
57433;SDS011;43277;52.672;6.984;2022-09-09T12:36:35;13.10;;;1.77;;
57433;SDS011;43277;52.672;6.984;2022-09-09T12:39:09;16.33;;;2.40;;
57433;SDS011;43277;52.672;6.984;2022-09-09T12:41:41;16.27;;;2.63;;
57433;SDS011;43277;52.672;6.984;2022-09-09T12:44:21;13.13;;;2.63;;
57433;SDS011;43277;52.672;6.984;2022-09-09T12:46:47;7.03;;;1.67;;
57433;SDS011;43277;52.672;6.984;2022-09-09T12:49:28;7.53;;;1.85;;
57433;SDS011;43277;52.672;6.984;2022-09-09T12:52:41;9.68;;;1.40;;
57433;SDS011;43277;52.672;6.984;2022-09-09T12:54:51;6.03;;;1.50;;
57433;SDS011;43277;52.672;6.984;2022-09-09T12:57:18;6.40;;;1.60;;
57433;SDS011;43277;52.672;6.984;2022-09-09T12:59:47;6.15;;;1.30;;
57433;SDS011;43277;52.672;6.984;2022-09-09T13:02:21;8.32;;;1.60;;
57433;SDS011;43277;52.672;6.984;2022-09-09T13:04:47;8.40;;;1.80;;
57433;SDS011;43277;52.672;6.984;2022-09-09T13:07:15;9.00;;;1.77;;
57433;SDS011;43277;52.672;6.984;2022-09-09T13:09:42;9.02;;;1.58;;
57433;SDS011;43277;52.672;6.984;2022-09-09T13:12:13;9.48;;;1.85;;
57433;SDS011;43277;52.672;6.984;2022-09-09T13:14:53;8.90;;;2.00;;
57433;SDS011;43277;52.672;6.984;2022-09-09T13:19:48;8.23;;;1.70;;
57433;SDS011;43277;52.672;6.984;2022-09-09T13:22:20;7.63;;;1.50;;
57433;SDS011;43277;52.672;6.984;2022-09-09T13:25:05;7.90;;;1.73;;
57433;SDS011;43277;52.672;6.984;2022-09-09T13:27:51;5.90;;;1.40;;
57433;SDS011;43277;52.672;6.984;2022-09-09T13:30:19;6.70;;;1.63;;
57433;SDS011;43277;52.672;6.984;2022-09-09T13:33:31;8.18;;;1.80;;
57433;SDS011;43277;52.672;6.984;2022-09-09T13:35:58;6.18;;;1.30;;
57433;SDS011;43277;52.672;6.984;2022-09-09T13:38:32;6.40;;;1.48;;
57433;SDS011;43277;52.672;6.984;2022-09-09T13:41:05;6.78;;;1.52;;
57433;SDS011;43277;52.672;6.984;2022-09-09T13:43:50;7.00;;;1.20;;
57433;SDS011;43277;52.672;6.984;2022-09-09T13:48:59;7.10;;;1.50;;
57433;SDS011;43277;52.672;6.984;2022-09-09T13:51:37;8.63;;;1.70;;
57433;SDS011;43277;52.672;6.984;2022-09-09T13:54:09;8.05;;;1.30;;
57433;SDS011;43277;52.672;6.984;2022-09-09T13:56:36;6.82;;;1.60;;
57433;SDS011;43277;52.672;6.984;2022-09-09T13:59:04;5.75;;;1.30;;
57433;SDS011;43277;52.672;6.984;2022-09-09T14:01:30;6.55;;;1.48;;
57433;SDS011;43277;52.672;6.984;2022-09-09T14:03:58;8.00;;;1.60;;
57433;SDS011;43277;52.672;6.984;2022-09-09T14:06:23;5.88;;;1.23;;
57433;SDS011;43277;52.672;6.984;2022-09-09T14:08:50;5.25;;;1.30;;
57433;SDS011;43277;52.672;6.984;2022-09-09T14:11:16;7.38;;;1.27;;
57433;SDS011;43277;52.672;6.984;2022-09-09T14:13:42;7.30;;;1.20;;
57433;SDS011;43277;52.672;6.984;2022-09-09T14:16:08;5.53;;;1.40;;
57433;SDS011;43277;52.672;6.984;2022-09-09T14:18:34;8.80;;;1.60;;
57433;SDS011;43277;52.672;6.984;2022-09-09T14:21:00;9.82;;;1.83;;
57433;SDS011;43277;52.672;6.984;2022-09-09T14:23:27;7.68;;;1.42;;
57433;SDS011;43277;52.672;6.984;2022-09-09T14:25:52;7.47;;;1.77;;
57433;SDS011;43277;52.672;6.984;2022-09-09T14:28:18;7.70;;;1.20;;
57433;SDS011;43277;52.672;6.984;2022-09-09T14:30:44;6.65;;;1.40;;
57433;SDS011;43277;52.672;6.984;2022-09-09T14:33:13;8.30;;;1.40;;
57433;SDS011;43277;52.672;6.984;2022-09-09T14:38:06;3.85;;;0.80;;
57433;SDS011;43277;52.672;6.984;2022-09-09T14:40:34;3.58;;;0.60;;
57433;SDS011;43277;52.672;6.984;2022-09-09T14:43:01;4.65;;;0.80;;
57433;SDS011;43277;52.672;6.984;2022-09-09T14:45:27;3.58;;;0.80;;
57433;SDS011;43277;52.672;6.984;2022-09-09T14:47:53;5.78;;;0.82;;
57433;SDS011;43277;52.672;6.984;2022-09-09T14:50:19;6.18;;;1.05;;
57433;SDS011;43277;52.672;6.984;2022-09-09T14:52:45;3.90;;;0.85;;
57433;SDS011;43277;52.672;6.984;2022-09-09T14:55:11;4.75;;;0.95;;
57433;SDS011;43277;52.672;6.984;2022-09-09T14:57:37;5.35;;;1.33;;
57433;SDS011;43277;52.672;6.984;2022-09-09T15:00:05;5.65;;;1.38;;
57433;SDS011;43277;52.672;6.984;2022-09-09T15:02:32;6.55;;;1.10;;
57433;SDS011;43277;52.672;6.984;2022-09-09T15:04:58;6.15;;;1.30;;
57433;SDS011;43277;52.672;6.984;2022-09-09T15:07:24;5.25;;;1.13;;
57433;SDS011;43277;52.672;6.984;2022-09-09T15:09:50;4.70;;;1.20;;
57433;SDS011;43277;52.672;6.984;2022-09-09T15:12:17;5.25;;;1.02;;
57433;SDS011;43277;52.672;6.984;2022-09-09T15:14:46;5.65;;;1.10;;
57433;SDS011;43277;52.672;6.984;2022-09-09T15:17:12;4.15;;;0.90;;
57433;SDS011;43277;52.672;6.984;2022-09-09T15:19:38;5.80;;;1.23;;
57433;SDS011;43277;52.672;6.984;2022-09-09T15:22:07;7.22;;;1.00;;
57433;SDS011;43277;52.672;6.984;2022-09-09T15:24:34;5.03;;;1.17;;
57433;SDS011;43277;52.672;6.984;2022-09-09T15:27:00;6.82;;;1.33;;
57433;SDS011;43277;52.672;6.984;2022-09-09T15:29:26;4.63;;;1.13;;
57433;SDS011;43277;52.672;6.984;2022-09-09T15:31:55;5.10;;;1.23;;
57433;SDS011;43277;52.672;6.984;2022-09-09T15:34:21;6.60;;;1.38;;
57433;SDS011;43277;52.672;6.984;2022-09-09T15:36:47;7.18;;;1.10;;
57433;SDS011;43277;52.672;6.984;2022-09-09T15:39:14;5.47;;;1.10;;
57433;SDS011;43277;52.672;6.984;2022-09-09T15:41:45;4.72;;;1.13;;
57433;SDS011;43277;52.672;6.984;2022-09-09T15:44:11;6.53;;;1.40;;
57433;SDS011;43277;52.672;6.984;2022-09-09T15:46:41;6.43;;;1.27;;
57433;SDS011;43277;52.672;6.984;2022-09-09T15:49:10;4.88;;;1.15;;
57433;SDS011;43277;52.672;6.984;2022-09-09T15:51:44;7.45;;;1.52;;
57433;SDS011;43277;52.672;6.984;2022-09-09T15:54:16;5.30;;;1.40;;
57433;SDS011;43277;52.672;6.984;2022-09-09T15:56:43;5.63;;;1.25;;
57433;SDS011;43277;52.672;6.984;2022-09-09T15:59:10;6.32;;;1.33;;
57433;SDS011;43277;52.672;6.984;2022-09-09T16:01:36;5.22;;;1.33;;
57433;SDS011;43277;52.672;6.984;2022-09-09T16:04:04;6.95;;;1.73;;
57433;SDS011;43277;52.672;6.984;2022-09-09T16:06:31;5.68;;;1.30;;
57433;SDS011;43277;52.672;6.984;2022-09-09T16:08:58;6.07;;;1.60;;
57433;SDS011;43277;52.672;6.984;2022-09-09T16:11:29;6.55;;;1.65;;
57433;SDS011;43277;52.672;6.984;2022-09-09T16:13:57;6.25;;;1.50;;
57433;SDS011;43277;52.672;6.984;2022-09-09T16:16:24;4.70;;;1.30;;
57433;SDS011;43277;52.672;6.984;2022-09-09T16:18:52;7.47;;;1.60;;
57433;SDS011;43277;52.672;6.984;2022-09-09T16:21:21;5.30;;;1.33;;
57433;SDS011;43277;52.672;6.984;2022-09-09T16:26:18;5.00;;;1.40;;
57433;SDS011;43277;52.672;6.984;2022-09-09T16:28:44;6.45;;;1.30;;
57433;SDS011;43277;52.672;6.984;2022-09-09T16:31:13;7.43;;;1.48;;
57433;SDS011;43277;52.672;6.984;2022-09-09T16:33:41;7.47;;;1.30;;
57433;SDS011;43277;52.672;6.984;2022-09-09T16:36:07;6.30;;;1.60;;
57433;SDS011;43277;52.672;6.984;2022-09-09T16:38:35;7.32;;;1.73;;
57433;SDS011;43277;52.672;6.984;2022-09-09T16:41:02;6.00;;;1.52;;
57433;SDS011;43277;52.672;6.984;2022-09-09T16:43:30;6.00;;;1.50;;
57433;SDS011;43277;52.672;6.984;2022-09-09T16:45:56;7.30;;;1.63;;
57433;SDS011;43277;52.672;6.984;2022-09-09T16:48:22;7.38;;;1.52;;
57433;SDS011;43277;52.672;6.984;2022-09-09T16:50:48;5.65;;;1.60;;
57433;SDS011;43277;52.672;6.984;2022-09-09T16:53:14;7.65;;;2.30;;
57433;SDS011;43277;52.672;6.984;2022-09-09T16:55:40;7.40;;;1.77;;
57433;SDS011;43277;52.672;6.984;2022-09-09T16:58:07;8.05;;;1.70;;
57433;SDS011;43277;52.672;6.984;2022-09-09T17:00:35;5.55;;;1.30;;
57433;SDS011;43277;52.672;6.984;2022-09-09T17:03:00;6.70;;;1.60;;
57433;SDS011;43277;52.672;6.984;2022-09-09T17:05:26;7.85;;;1.75;;
57433;SDS011;43277;52.672;6.984;2022-09-09T17:07:52;9.13;;;2.00;;
57433;SDS011;43277;52.672;6.984;2022-09-09T17:10:20;6.55;;;1.77;;
57433;SDS011;43277;52.672;6.984;2022-09-09T17:12:46;7.65;;;1.70;;
57433;SDS011;43277;52.672;6.984;2022-09-09T17:15:11;7.22;;;1.50;;
57433;SDS011;43277;52.672;6.984;2022-09-09T17:17:37;8.20;;;1.83;;
57433;SDS011;43277;52.672;6.984;2022-09-09T17:20:03;6.70;;;1.60;;
57433;SDS011;43277;52.672;6.984;2022-09-09T17:22:31;5.70;;;1.60;;
57433;SDS011;43277;52.672;6.984;2022-09-09T17:24:57;8.32;;;1.98;;
57433;SDS011;43277;52.672;6.984;2022-09-09T17:27:23;6.90;;;2.03;;
57433;SDS011;43277;52.672;6.984;2022-09-09T17:29:48;6.72;;;1.92;;
57433;SDS011;43277;52.672;6.984;2022-09-09T17:32:14;7.63;;;2.10;;
57433;SDS011;43277;52.672;6.984;2022-09-09T17:34:40;7.53;;;2.00;;
57433;SDS011;43277;52.672;6.984;2022-09-09T17:37:05;7.70;;;1.90;;
57433;SDS011;43277;52.672;6.984;2022-09-09T17:39:32;7.13;;;1.80;;
57433;SDS011;43277;52.672;6.984;2022-09-09T17:41:58;8.13;;;1.77;;